DXB weather

Dubai International Airport
Dubai, Dubai Emirate, United Arab Emirates

Public forecast

Using degrees Celsius for public forecast. Weather courtesy of forecast.io.

METAR (pilot weather report)

Retrieved 2017/10/19 06:00 UTC (22 minutes ago):

OMDB 190600Z 05006KT 360V110 CAVOK 33/21 Q1013 NOSIG

TAF (pilot weather forecast)

Retrieved 2017/10/19 06:00 UTC (22 minutes ago):

TAF OMDB 190458Z 1906/2012 08007KT 8000 NSC BECMG 1908/1910 35012KT BECMG 1915/1917 09005KT BECMG 2007/2009 31010KT